sensor_id;sensor_type;location;lat;lon;timestamp;pressure;altitude;pressure_sealevel;temperature;humidity
60228;BME280;46091;46.512;6.626;2023-04-08T06:54:07;97165.69;;;9.53;60.98
60228;BME280;46091;46.512;6.626;2023-04-08T06:56:11;97169.69;;;9.86;60.55
60228;BME280;46091;46.512;6.626;2023-04-08T06:58:14;97161.34;;;10.12;59.96
60228;BME280;46091;46.512;6.626;2023-04-08T07:00:17;97172.22;;;10.32;59.81
60228;BME280;46091;46.512;6.626;2023-04-08T07:02:20;97164.66;;;10.44;59.57
60228;BME280;46091;46.512;6.626;2023-04-08T07:04:23;97167.28;;;10.59;59.18
60228;BME280;46091;46.512;6.626;2023-04-08T07:06:26;97162.53;;;10.69;58.85
60228;BME280;46091;46.512;6.626;2023-04-08T07:08:29;97172.63;;;10.80;58.78
60228;BME280;46091;46.512;6.626;2023-04-08T07:10:33;97172.53;;;10.88;58.83
60228;BME280;46091;46.512;6.626;2023-04-08T07:12:36;97176.88;;;10.96;58.61
60228;BME280;46091;46.512;6.626;2023-04-08T07:14:39;97169.84;;;11.03;58.26
60228;BME280;46091;46.512;6.626;2023-04-08T07:16:42;97169.91;;;11.09;57.77
60228;BME280;46091;46.512;6.626;2023-04-08T07:18:45;97175.66;;;11.13;57.63
60228;BME280;46091;46.512;6.626;2023-04-08T07:20:49;97170.81;;;11.17;58.03
60228;BME280;46091;46.512;6.626;2023-04-08T07:22:54;97172.44;;;11.18;57.46
60228;BME280;46091;46.512;6.626;2023-04-08T07:24:57;97168.78;;;11.19;57.74
60228;BME280;46091;46.512;6.626;2023-04-08T07:27:01;97165.78;;;11.22;57.44
60228;BME280;46091;46.512;6.626;2023-04-08T07:29:04;97174.34;;;11.24;57.47
60228;BME280;46091;46.512;6.626;2023-04-08T07:31:09;97175.59;;;11.28;57.37
60228;BME280;46091;46.512;6.626;2023-04-08T07:33:12;97177.50;;;11.34;57.11
60228;BME280;46091;46.512;6.626;2023-04-08T07:35:16;97180.41;;;11.39;57.24
60228;BME280;46091;46.512;6.626;2023-04-08T07:37:24;97179.66;;;11.45;56.94
60228;BME280;46091;46.512;6.626;2023-04-08T07:39:27;97180.09;;;11.49;56.62
60228;BME280;46091;46.512;6.626;2023-04-08T07:41:30;97179.91;;;11.50;56.79
60228;BME280;46091;46.512;6.626;2023-04-08T07:43:34;97182.34;;;11.52;56.76
60228;BME280;46091;46.512;6.626;2023-04-08T07:45:38;97184.81;;;11.53;56.53
60228;BME280;46091;46.512;6.626;2023-04-08T07:47:40;97179.78;;;11.58;56.48
60228;BME280;46091;46.512;6.626;2023-04-08T07:49:45;97181.47;;;11.66;56.53
60228;BME280;46091;46.512;6.626;2023-04-08T07:51:48;97183.75;;;11.69;56.49
60228;BME280;46091;46.512;6.626;2023-04-08T07:53:52;97182.53;;;11.72;56.24
60228;BME280;46091;46.512;6.626;2023-04-08T07:55:54;97183.75;;;11.69;56.22
60228;BME280;46091;46.512;6.626;2023-04-08T07:57:59;97188.84;;;11.71;56.25
60228;BME280;46091;46.512;6.626;2023-04-08T08:00:04;97197.41;;;11.73;55.94
60228;BME280;46091;46.512;6.626;2023-04-08T08:02:07;97195.41;;;11.75;56.10
60228;BME280;46091;46.512;6.626;2023-04-08T08:04:10;97199.50;;;11.77;55.98
60228;BME280;46091;46.512;6.626;2023-04-08T08:06:14;97195.50;;;11.81;56.06
60228;BME280;46091;46.512;6.626;2023-04-08T08:08:17;97201.63;;;11.82;55.79
60228;BME280;46091;46.512;6.626;2023-04-08T08:10:20;97203.25;;;11.83;55.43
60228;BME280;46091;46.512;6.626;2023-04-08T08:12:23;97203.44;;;11.81;55.79
60228;BME280;46091;46.512;6.626;2023-04-08T08:14:26;97204.06;;;11.83;55.49
60228;BME280;46091;46.512;6.626;2023-04-08T08:16:31;97201.03;;;11.86;55.46
60228;BME280;46091;46.512;6.626;2023-04-08T08:18:34;97200.84;;;11.88;55.19
60228;BME280;46091;46.512;6.626;2023-04-08T08:20:37;97204.75;;;11.92;55.00
60228;BME280;46091;46.512;6.626;2023-04-08T08:22:40;97202.72;;;11.94;55.25
60228;BME280;46091;46.512;6.626;2023-04-08T08:24:58;97212.75;;;11.99;55.10
60228;BME280;46091;46.512;6.626;2023-04-08T08:27:01;97210.91;;;11.99;54.80
60228;BME280;46091;46.512;6.626;2023-04-08T08:29:05;97210.09;;;11.99;54.90
60228;BME280;46091;46.512;6.626;2023-04-08T08:31:09;97205.25;;;12.02;54.75
60228;BME280;46091;46.512;6.626;2023-04-08T08:33:14;97207.91;;;12.02;54.67
60228;BME280;46091;46.512;6.626;2023-04-08T08:35:17;97209.06;;;12.00;54.64
60228;BME280;46091;46.512;6.626;2023-04-08T08:37:19;97212.56;;;12.00;54.50
60228;BME280;46091;46.512;6.626;2023-04-08T08:39:22;97206.88;;;12.03;54.51
60228;BME280;46091;46.512;6.626;2023-04-08T08:41:25;97207.50;;;12.05;54.08
60228;BME280;46091;46.512;6.626;2023-04-08T08:43:29;97202.22;;;12.05;54.08
60228;BME280;46091;46.512;6.626;2023-04-08T08:45:37;97214.44;;;12.06;54.29
60228;BME280;46091;46.512;6.626;2023-04-08T08:47:40;97213.44;;;12.07;54.13
60228;BME280;46091;46.512;6.626;2023-04-08T08:49:44;97208.75;;;12.09;53.91
60228;BME280;46091;46.512;6.626;2023-04-08T08:51:49;97203.09;;;12.12;53.79
60228;BME280;46091;46.512;6.626;2023-04-08T08:53:55;97215.94;;;12.15;53.83
60228;BME280;46091;46.512;6.626;2023-04-08T08:55:58;97209.25;;;12.19;53.79
60228;BME280;46091;46.512;6.626;2023-04-08T08:58:19;97210.50;;;12.23;53.74
60228;BME280;46091;46.512;6.626;2023-04-08T09:00:30;97219.09;;;12.26;53.83
60228;BME280;46091;46.512;6.626;2023-04-08T09:02:35;97210.94;;;12.27;53.69
60228;BME280;46091;46.512;6.626;2023-04-08T09:04:38;97213.16;;;12.23;53.71
60228;BME280;46091;46.512;6.626;2023-04-08T09:06:44;97215.34;;;12.20;53.81
60228;BME280;46091;46.512;6.626;2023-04-08T09:08:47;97208.47;;;12.26;53.80
60228;BME280;46091;46.512;6.626;2023-04-08T09:10:50;97219.94;;;12.33;53.76
60228;BME280;46091;46.512;6.626;2023-04-08T09:12:53;97216.25;;;12.34;53.41
60228;BME280;46091;46.512;6.626;2023-04-08T09:15:04;97214.00;;;12.31;53.87
60228;BME280;46091;46.512;6.626;2023-04-08T09:17:07;97215.44;;;12.33;53.61
60228;BME280;46091;46.512;6.626;2023-04-08T09:19:10;97212.97;;;12.25;53.26
60228;BME280;46091;46.512;6.626;2023-04-08T09:21:15;97217.00;;;12.21;53.38
60228;BME280;46091;46.512;6.626;2023-04-08T09:23:19;97220.94;;;12.32;53.39
60228;BME280;46091;46.512;6.626;2023-04-08T09:25:23;97213.44;;;12.35;53.45
60228;BME280;46091;46.512;6.626;2023-04-08T09:27:33;97220.75;;;12.33;53.36
60228;BME280;46091;46.512;6.626;2023-04-08T09:29:36;97216.25;;;12.34;53.26
60228;BME280;46091;46.512;6.626;2023-04-08T09:31:40;97207.31;;;12.35;52.87
60228;BME280;46091;46.512;6.626;2023-04-08T09:33:43;97207.69;;;12.32;52.84
60228;BME280;46091;46.512;6.626;2023-04-08T09:35:46;97209.31;;;12.33;52.99
60228;BME280;46091;46.512;6.626;2023-04-08T09:37:50;97214.81;;;12.31;53.19
60228;BME280;46091;46.512;6.626;2023-04-08T09:39:55;97204.84;;;12.33;52.75
60228;BME280;46091;46.512;6.626;2023-04-08T09:41:59;97204.91;;;12.40;52.78
60228;BME280;46091;46.512;6.626;2023-04-08T09:44:08;97204.56;;;12.49;53.02
60228;BME280;46091;46.512;6.626;2023-04-08T09:46:11;97195.78;;;12.49;52.48
60228;BME280;46091;46.512;6.626;2023-04-08T09:48:17;97201.28;;;12.47;52.80
60228;BME280;46091;46.512;6.626;2023-04-08T09:50:26;97198.84;;;12.52;52.65
60228;BME280;46091;46.512;6.626;2023-04-08T09:52:37;97203.97;;;12.54;52.24
60228;BME280;46091;46.512;6.626;2023-04-08T09:54:46;97201.28;;;12.47;52.34
60228;BME280;46091;46.512;6.626;2023-04-08T09:57:00;97195.56;;;12.50;52.45
60228;BME280;46091;46.512;6.626;2023-04-08T09:59:11;97198.44;;;12.56;52.37
60228;BME280;46091;46.512;6.626;2023-04-08T10:01:16;97201.56;;;12.59;52.07
60228;BME280;46091;46.512;6.626;2023-04-08T10:03:26;97199.72;;;12.60;52.22
60228;BME280;46091;46.512;6.626;2023-04-08T10:05:30;97207.28;;;12.63;52.21
60228;BME280;46091;46.512;6.626;2023-04-08T10:07:33;97197.88;;;12.60;52.17
60228;BME280;46091;46.512;6.626;2023-04-08T10:09:37;97191.56;;;12.61;52.28
60228;BME280;46091;46.512;6.626;2023-04-08T10:11:42;97194.63;;;12.65;51.96
60228;BME280;46091;46.512;6.626;2023-04-08T10:13:46;97186.06;;;12.63;51.93
60228;BME280;46091;46.512;6.626;2023-04-08T10:16:17;97193.19;;;12.62;52.11
60228;BME280;46091;46.512;6.626;2023-04-08T10:18:30;97185.66;;;12.66;51.82
60228;BME280;46091;46.512;6.626;2023-04-08T10:20:41;97184.44;;;12.68;51.76
60228;BME280;46091;46.512;6.626;2023-04-08T10:22:45;97188.97;;;12.74;51.69
60228;BME280;46091;46.512;6.626;2023-04-08T10:25:27;97181.81;;;12.75;51.59
60228;BME280;46091;46.512;6.626;2023-04-08T10:27:38;97186.31;;;12.74;51.73
60228;BME280;46091;46.512;6.626;2023-04-08T10:29:43;97185.91;;;12.71;51.36
60228;BME280;46091;46.512;6.626;2023-04-08T10:31:47;97186.47;;;12.66;51.87
60228;BME280;46091;46.512;6.626;2023-04-08T10:33:51;97181.41;;;12.71;51.96
60228;BME280;46091;46.512;6.626;2023-04-08T10:35:59;97183.25;;;12.77;51.87
60228;BME280;46091;46.512;6.626;2023-04-08T10:38:03;97165.13;;;12.81;51.65
60228;BME280;46091;46.512;6.626;2023-04-08T10:40:07;97171.25;;;12.81;51.66
60228;BME280;46091;46.512;6.626;2023-04-08T10:42:26;97172.91;;;12.89;51.50
60228;BME280;46091;46.512;6.626;2023-04-08T10:44:29;97177.19;;;12.90;51.27
60228;BME280;46091;46.512;6.626;2023-04-08T10:46:37;97174.13;;;12.87;51.45
60228;BME280;46091;46.512;6.626;2023-04-08T10:48:40;97173.31;;;12.86;51.33
60228;BME280;46091;46.512;6.626;2023-04-08T10:50:43;97171.28;;;12.88;51.76
60228;BME280;46091;46.512;6.626;2023-04-08T10:52:46;97162.94;;;12.91;51.56
60228;BME280;46091;46.512;6.626;2023-04-08T10:54:49;97166.00;;;12.95;51.43
60228;BME280;46091;46.512;6.626;2023-04-08T10:56:52;97158.25;;;13.00;51.44
60228;BME280;46091;46.512;6.626;2023-04-08T10:58:55;97161.94;;;13.05;51.31
60228;BME280;46091;46.512;6.626;2023-04-08T11:01:02;97163.59;;;13.13;51.19
60228;BME280;46091;46.512;6.626;2023-04-08T11:03:08;97165.69;;;13.24;51.14
60228;BME280;46091;46.512;6.626;2023-04-08T11:05:13;97166.34;;;13.33;50.92
60228;BME280;46091;46.512;6.626;2023-04-08T11:07:19;97162.88;;;13.39;50.83
60228;BME280;46091;46.512;6.626;2023-04-08T11:09:22;97165.34;;;13.40;50.87
60228;BME280;46091;46.512;6.626;2023-04-08T11:11:24;97167.16;;;13.40;50.74
60228;BME280;46091;46.512;6.626;2023-04-08T11:13:30;97165.53;;;13.39;51.05
60228;BME280;46091;46.512;6.626;2023-04-08T11:15:35;97159.78;;;13.35;50.91
60228;BME280;46091;46.512;6.626;2023-04-08T11:17:38;97165.31;;;13.34;51.01
60228;BME280;46091;46.512;6.626;2023-04-08T11:19:42;97160.22;;;13.39;50.67
60228;BME280;46091;46.512;6.626;2023-04-08T11:21:46;97158.00;;;13.49;50.78
60228;BME280;46091;46.512;6.626;2023-04-08T11:23:49;97144.13;;;13.60;50.29
60228;BME280;46091;46.512;6.626;2023-04-08T11:25:54;97156.78;;;13.72;49.81
60228;BME280;46091;46.512;6.626;2023-04-08T11:27:57;97156.34;;;13.81;49.86
60228;BME280;46091;46.512;6.626;2023-04-08T11:30:01;97161.47;;;13.89;49.56
60228;BME280;46091;46.512;6.626;2023-04-08T11:32:06;97151.25;;;13.99;49.24
60228;BME280;46091;46.512;6.626;2023-04-08T11:34:09;97152.69;;;14.02;49.14
60228;BME280;46091;46.512;6.626;2023-04-08T11:36:14;97152.06;;;14.07;49.34
60228;BME280;46091;46.512;6.626;2023-04-08T11:38:21;97145.75;;;14.08;49.06
60228;BME280;46091;46.512;6.626;2023-04-08T11:40:25;97150.44;;;14.06;49.34
60228;BME280;46091;46.512;6.626;2023-04-08T11:42:29;97143.28;;;14.06;49.25
60228;BME280;46091;46.512;6.626;2023-04-08T11:44:32;97154.31;;;14.10;49.07
60228;BME280;46091;46.512;6.626;2023-04-08T11:46:35;97139.19;;;14.17;49.07
60228;BME280;46091;46.512;6.626;2023-04-08T11:48:38;97142.25;;;14.27;48.70
60228;BME280;46091;46.512;6.626;2023-04-08T11:50:41;97148.13;;;14.36;48.47
60228;BME280;46091;46.512;6.626;2023-04-08T11:52:48;97157.94;;;14.35;48.04
60228;BME280;46091;46.512;6.626;2023-04-08T11:54:54;97155.28;;;14.35;48.09
60228;BME280;46091;46.512;6.626;2023-04-08T11:56:58;97148.34;;;14.34;48.09
60228;BME280;46091;46.512;6.626;2023-04-08T11:59:01;97146.50;;;14.35;48.12
60228;BME280;46091;46.512;6.626;2023-04-08T12:01:05;97142.41;;;14.32;48.16
60228;BME280;46091;46.512;6.626;2023-04-08T12:03:08;97138.31;;;14.36;47.88
60228;BME280;46091;46.512;6.626;2023-04-08T12:05:11;97139.94;;;14.37;47.81
60228;BME280;46091;46.512;6.626;2023-04-08T12:07:14;97136.25;;;14.38;47.62
60228;BME280;46091;46.512;6.626;2023-04-08T12:09:19;97143.63;;;14.43;47.63
60228;BME280;46091;46.512;6.626;2023-04-08T12:11:23;97137.91;;;14.46;47.69
60228;BME280;46091;46.512;6.626;2023-04-08T12:13:26;97144.84;;;14.47;47.42
60228;BME280;46091;46.512;6.626;2023-04-08T12:15:29;97147.31;;;14.48;47.24
60228;BME280;46091;46.512;6.626;2023-04-08T12:17:33;97131.75;;;14.52;46.59
60228;BME280;46091;46.512;6.626;2023-04-08T12:19:36;97137.47;;;14.55;46.63
60228;BME280;46091;46.512;6.626;2023-04-08T12:21:39;97144.81;;;14.60;46.13
60228;BME280;46091;46.512;6.626;2023-04-08T12:23:42;97143.78;;;14.68;46.68
60228;BME280;46091;46.512;6.626;2023-04-08T12:25:46;97137.22;;;14.70;46.56
60228;BME280;46091;46.512;6.626;2023-04-08T12:27:49;97139.47;;;14.73;46.22
60228;BME280;46091;46.512;6.626;2023-04-08T12:29:51;97137.19;;;14.77;46.06
60228;BME280;46091;46.512;6.626;2023-04-08T12:31:54;97134.91;;;14.80;46.01
60228;BME280;46091;46.512;6.626;2023-04-08T12:33:57;97136.34;;;14.83;45.90
60228;BME280;46091;46.512;6.626;2023-04-08T12:36:00;97141.47;;;14.84;45.68
60228;BME280;46091;46.512;6.626;2023-04-08T12:38:03;97137.78;;;14.85;45.69
60228;BME280;46091;46.512;6.626;2023-04-08T12:40:07;97141.06;;;14.81;45.40
60228;BME280;46091;46.512;6.626;2023-04-08T12:42:12;97135.56;;;14.76;45.30
60228;BME280;46091;46.512;6.626;2023-04-08T12:44:15;97133.72;;;14.76;45.55
60228;BME280;46091;46.512;6.626;2023-04-08T12:46:18;97127.56;;;14.76;45.31
60228;BME280;46091;46.512;6.626;2023-04-08T12:48:21;97115.69;;;14.78;45.06
60228;BME280;46091;46.512;6.626;2023-04-08T12:50:24;97124.47;;;14.85;45.15
60228;BME280;46091;46.512;6.626;2023-04-08T12:52:27;97123.38;;;14.93;45.01
60228;BME280;46091;46.512;6.626;2023-04-08T12:54:30;97120.91;;;14.98;45.05
60228;BME280;46091;46.512;6.626;2023-04-08T12:56:33;97123.16;;;15.01;44.37
60228;BME280;46091;46.512;6.626;2023-04-08T12:58:37;97125.00;;;15.01;44.27
60228;BME280;46091;46.512;6.626;2023-04-08T13:00:40;97125.22;;;14.99;44.30
60228;BME280;46091;46.512;6.626;2023-04-08T13:02:46;97128.09;;;14.98;44.09
60228;BME280;46091;46.512;6.626;2023-04-08T13:04:50;97117.81;;;15.01;44.39
60228;BME280;46091;46.512;6.626;2023-04-08T13:06:53;97121.91;;;15.04;44.06
60228;BME280;46091;46.512;6.626;2023-04-08T13:08:57;97117.19;;;15.06;44.24
60228;BME280;46091;46.512;6.626;2023-04-08T13:11:00;97125.38;;;15.04;44.30
60228;BME280;46091;46.512;6.626;2023-04-08T13:13:05;97123.75;;;15.03;44.24
60228;BME280;46091;46.512;6.626;2023-04-08T13:15:10;97118.84;;;15.00;43.93
60228;BME280;46091;46.512;6.626;2023-04-08T13:17:13;97122.13;;;15.02;43.89
60228;BME280;46091;46.512;6.626;2023-04-08T13:19:16;97111.03;;;15.05;44.19
60228;BME280;46091;46.512;6.626;2023-04-08T13:21:19;97136.22;;;15.09;43.97
60228;BME280;46091;46.512;6.626;2023-04-08T13:23:22;97125.13;;;15.12;43.86
60228;BME280;46091;46.512;6.626;2023-04-08T13:25:24;97127.78;;;15.19;43.54
60228;BME280;46091;46.512;6.626;2023-04-08T13:27:27;97118.09;;;15.25;43.41
60228;BME280;46091;46.512;6.626;2023-04-08T13:29:30;97123.00;;;15.28;43.27
60228;BME280;46091;46.512;6.626;2023-04-08T13:31:34;97134.91;;;15.25;43.43
60228;BME280;46091;46.512;6.626;2023-04-08T13:33:37;97118.53;;;15.22;43.16
60228;BME280;46091;46.512;6.626;2023-04-08T13:35:40;97116.25;;;15.25;43.05
60228;BME280;46091;46.512;6.626;2023-04-08T13:37:43;97123.81;;;15.28;43.01
60228;BME280;46091;46.512;6.626;2023-04-08T13:39:46;97108.44;;;15.30;42.83
60228;BME280;46091;46.512;6.626;2023-04-08T13:41:49;97112.53;;;15.33;42.85
60228;BME280;46091;46.512;6.626;2023-04-08T13:43:52;97117.41;;;15.36;42.84
60228;BME280;46091;46.512;6.626;2023-04-08T13:45:55;97114.31;;;15.39;42.85
60228;BME280;46091;46.512;6.626;2023-04-08T13:48:00;97111.00;;;15.43;42.66
60228;BME280;46091;46.512;6.626;2023-04-08T13:50:03;97118.56;;;15.47;42.26
60228;BME280;46091;46.512;6.626;2023-04-08T13:52:06;97118.56;;;15.47;42.38
60228;BME280;46091;46.512;6.626;2023-04-08T13:54:09;97112.44;;;15.46;41.99
60228;BME280;46091;46.512;6.626;2023-04-08T13:56:12;97115.31;;;15.44;41.47
60228;BME280;46091;46.512;6.626;2023-04-08T13:58:15;97107.53;;;15.43;41.18
60228;BME280;46091;46.512;6.626;2023-04-08T14:00:24;97110.19;;;15.43;41.58
60228;BME280;46091;46.512;6.626;2023-04-08T14:02:27;97107.91;;;15.47;41.55
60228;BME280;46091;46.512;6.626;2023-04-08T14:04:31;97118.91;;;15.57;41.36
60228;BME280;46091;46.512;6.626;2023-04-08T14:06:35;97109.06;;;15.57;41.30
60228;BME280;46091;46.512;6.626;2023-04-08T14:08:38;97102.47;;;15.66;41.43
60228;BME280;46091;46.512;6.626;2023-04-08T14:10:40;97111.22;;;15.73;41.28
60228;BME280;46091;46.512;6.626;2023-04-08T14:12:43;97103.97;;;15.81;41.32
60228;BME280;46091;46.512;6.626;2023-04-08T14:14:47;97106.81;;;15.86;41.42
60228;BME280;46091;46.512;6.626;2023-04-08T14:16:50;97117.50;;;15.86;41.31
60228;BME280;46091;46.512;6.626;2023-04-08T14:18:53;97111.97;;;15.81;41.29
60228;BME280;46091;46.512;6.626;2023-04-08T14:20:57;97111.50;;;15.65;40.91
60228;BME280;46091;46.512;6.626;2023-04-08T14:23:00;97107.44;;;15.56;40.87
60228;BME280;46091;46.512;6.626;2023-04-08T14:25:04;97106.66;;;15.49;41.19
60228;BME280;46091;46.512;6.626;2023-04-08T14:27:07;97109.38;;;15.42;41.32
60228;BME280;46091;46.512;6.626;2023-04-08T14:29:10;97114.94;;;15.41;41.22
60228;BME280;46091;46.512;6.626;2023-04-08T14:31:13;97117.19;;;15.37;41.14
60228;BME280;46091;46.512;6.626;2023-04-08T14:33:16;97119.91;;;15.31;41.07
60228;BME280;46091;46.512;6.626;2023-04-08T14:35:19;97121.13;;;15.28;41.09
60228;BME280;46091;46.512;6.626;2023-04-08T14:37:23;97114.19;;;15.27;41.07
60228;BME280;46091;46.512;6.626;2023-04-08T14:39:26;97127.50;;;15.27;40.85
60228;BME280;46091;46.512;6.626;2023-04-08T14:41:29;97130.22;;;15.21;40.89
60228;BME280;46091;46.512;6.626;2023-04-08T14:43:32;97118.34;;;15.17;40.80
60228;BME280;46091;46.512;6.626;2023-04-08T14:45:35;97114.69;;;15.18;40.98
60228;BME280;46091;46.512;6.626;2023-04-08T14:47:38;97118.19;;;15.11;40.90
60228;BME280;46091;46.512;6.626;2023-04-08T14:49:41;97119.03;;;15.05;40.84
60228;BME280;46091;46.512;6.626;2023-04-08T14:51:45;97114.34;;;15.01;40.96
60228;BME280;46091;46.512;6.626;2023-04-08T14:53:49;97108.66;;;14.97;40.75
60228;BME280;46091;46.512;6.626;2023-04-08T14:55:52;97117.66;;;14.96;40.91
60228;BME280;46091;46.512;6.626;2023-04-08T14:57:55;97122.34;;;15.01;40.68
60228;BME280;46091;46.512;6.626;2023-04-08T15:00:01;97113.09;;;15.03;40.73
60228;BME280;46091;46.512;6.626;2023-04-08T15:02:04;97114.91;;;15.09;40.61
60228;BME280;46091;46.512;6.626;2023-04-08T15:04:08;97111.81;;;15.12;40.10
60228;BME280;46091;46.512;6.626;2023-04-08T15:06:11;97122.03;;;15.15;40.52
60228;BME280;46091;46.512;6.626;2023-04-08T15:08:18;97116.31;;;15.19;40.42
60228;BME280;46091;46.512;6.626;2023-04-08T15:10:22;97111.59;;;15.21;40.42
60228;BME280;46091;46.512;6.626;2023-04-08T15:12:25;97117.50;;;15.23;40.23
60228;BME280;46091;46.512;6.626;2023-04-08T15:14:28;97118.91;;;15.25;40.63
60228;BME280;46091;46.512;6.626;2023-04-08T15:16:31;97119.28;;;15.29;40.65
60228;BME280;46091;46.512;6.626;2023-04-08T15:18:33;97117.25;;;15.31;40.55
60228;BME280;46091;46.512;6.626;2023-04-08T15:20:36;97120.94;;;15.30;40.47
60228;BME280;46091;46.512;6.626;2023-04-08T15:22:39;97118.66;;;15.33;40.38
60228;BME280;46091;46.512;6.626;2023-04-08T15:24:42;97122.31;;;15.39;40.35
60228;BME280;46091;46.512;6.626;2023-04-08T15:26:49;97118.59;;;15.40;40.52
60228;BME280;46091;46.512;6.626;2023-04-08T15:28:53;97117.59;;;15.41;40.54
60228;BME280;46091;46.512;6.626;2023-04-08T15:30:57;97120.03;;;15.42;40.48
60228;BME280;46091;46.512;6.626;2023-04-08T15:33:03;97120.66;;;15.38;40.12
60228;BME280;46091;46.512;6.626;2023-04-08T15:35:07;97117.41;;;15.36;40.53
60228;BME280;46091;46.512;6.626;2023-04-08T15:37:11;97114.97;;;15.34;40.29
60228;BME280;46091;46.512;6.626;2023-04-08T15:39:14;97124.00;;;15.33;40.39
60228;BME280;46091;46.512;6.626;2023-04-08T15:41:17;97126.88;;;15.32;40.08
60228;BME280;46091;46.512;6.626;2023-04-08T15:43:23;97122.81;;;15.29;40.44
60228;BME280;46091;46.512;6.626;2023-04-08T15:45:25;97120.75;;;15.25;40.36
60228;BME280;46091;46.512;6.626;2023-04-08T15:47:28;97120.75;;;15.25;40.25
60228;BME280;46091;46.512;6.626;2023-04-08T15:49:32;97124.31;;;15.19;40.21
60228;BME280;46091;46.512;6.626;2023-04-08T15:51:35;97132.09;;;15.13;40.54
60228;BME280;46091;46.512;6.626;2023-04-08T15:53:37;97137.03;;;15.10;40.37
60228;BME280;46091;46.512;6.626;2023-04-08T15:55:40;97145.66;;;15.05;40.58
60228;BME280;46091;46.512;6.626;2023-04-08T15:57:43;97138.09;;;15.02;40.42
60228;BME280;46091;46.512;6.626;2023-04-08T15:59:47;97120.50;;;14.95;40.09
60228;BME280;46091;46.512;6.626;2023-04-08T16:01:50;97123.38;;;14.93;40.21
60228;BME280;46091;46.512;6.626;2023-04-08T16:03:54;97121.53;;;14.94;40.15
60228;BME280;46091;46.512;6.626;2023-04-08T16:05:57;97127.09;;;14.92;40.50
60228;BME280;46091;46.512;6.626;2023-04-08T16:08:00;97125.44;;;14.91;40.15
60228;BME280;46091;46.512;6.626;2023-04-08T16:10:03;97139.38;;;14.93;40.24
60228;BME280;46091;46.512;6.626;2023-04-08T16:12:06;97127.09;;;14.92;40.27
60228;BME280;46091;46.512;6.626;2023-04-08T16:14:09;97120.56;;;14.88;40.09
60228;BME280;46091;46.512;6.626;2023-04-08T16:16:15;97119.75;;;14.88;40.29
60228;BME280;46091;46.512;6.626;2023-04-08T16:18:21;97118.50;;;14.90;40.06
60228;BME280;46091;46.512;6.626;2023-04-08T16:20:24;97128.31;;;14.96;40.19
60228;BME280;46091;46.512;6.626;2023-04-08T16:22:27;97121.94;;;14.97;40.06
60228;BME280;46091;46.512;6.626;2023-04-08T16:24:34;97123.59;;;14.98;40.06
60228;BME280;46091;46.512;6.626;2023-04-08T16:26:37;97117.22;;;14.99;40.18
60228;BME280;46091;46.512;6.626;2023-04-08T16:28:41;97124.19;;;15.00;40.13
60228;BME280;46091;46.512;6.626;2023-04-08T16:30:44;97131.34;;;15.00;39.74
60228;BME280;46091;46.512;6.626;2023-04-08T16:32:49;97133.19;;;14.99;40.04
60228;BME280;46091;46.512;6.626;2023-04-08T16:34:52;97123.59;;;14.98;39.60
60228;BME280;46091;46.512;6.626;2023-04-08T16:36:56;97129.94;;;14.97;39.72
60228;BME280;46091;46.512;6.626;2023-04-08T16:38:59;97127.88;;;14.99;39.63
60228;BME280;46091;46.512;6.626;2023-04-08T16:41:02;97136.47;;;15.01;39.73
60228;BME280;46091;46.512;6.626;2023-04-08T16:43:07;97133.19;;;14.99;39.63
60228;BME280;46091;46.512;6.626;2023-04-08T16:45:10;97131.56;;;14.98;39.94
60228;BME280;46091;46.512;6.626;2023-04-08T16:47:13;97123.81;;;14.97;39.87
60228;BME280;46091;46.512;6.626;2023-04-08T16:49:17;97127.50;;;14.96;39.70
60228;BME280;46091;46.512;6.626;2023-04-08T16:51:20;97124.63;;;14.97;39.90
60228;BME280;46091;46.512;6.626;2023-04-08T16:53:23;97128.91;;;14.98;39.86
60228;BME280;46091;46.512;6.626;2023-04-08T16:55:26;97141.19;;;14.99;39.78
60228;BME280;46091;46.512;6.626;2023-04-08T16:57:29;97126.25;;;14.98;39.59
60228;BME280;46091;46.512;6.626;2023-04-08T16:59:32;97127.88;;;14.99;39.74
60228;BME280;46091;46.512;6.626;2023-04-08T17:01:36;97133.81;;;15.01;39.64
60228;BME280;46091;46.512;6.626;2023-04-08T17:03:38;97130.91;;;15.03;39.92
60228;BME280;46091;46.512;6.626;2023-04-08T17:05:43;97134.41;;;15.03;39.65
60228;BME280;46091;46.512;6.626;2023-04-08T17:07:46;97129.28;;;15.02;39.67
60228;BME280;46091;46.512;6.626;2023-04-08T17:09:49;97134.41;;;15.03;39.64
60228;BME280;46091;46.512;6.626;2023-04-08T17:11:53;97131.13;;;15.01;39.81
60228;BME280;46091;46.512;6.626;2023-04-08T17:13:56;97129.94;;;14.97;39.73
60228;BME280;46091;46.512;6.626;2023-04-08T17:15:59;97132.19;;;14.94;39.42
60228;BME280;46091;46.512;6.626;2023-04-08T17:18:02;97143.06;;;14.92;39.65
60228;BME280;46091;46.512;6.626;2023-04-08T17:20:06;97138.53;;;14.93;39.75
60228;BME280;46091;46.512;6.626;2023-04-08T17:22:11;97137.72;;;14.92;39.59
60228;BME280;46091;46.512;6.626;2023-04-08T17:24:13;97153.09;;;14.90;39.59
60228;BME280;46091;46.512;6.626;2023-04-08T17:26:16;97143.91;;;14.86;39.58
60228;BME280;46091;46.512;6.626;2023-04-08T17:28:19;97142.88;;;14.87;39.95
60228;BME280;46091;46.512;6.626;2023-04-08T17:30:22;97143.09;;;14.85;39.78
60228;BME280;46091;46.512;6.626;2023-04-08T17:32:25;97144.13;;;14.84;39.76
60228;BME280;46091;46.512;6.626;2023-04-08T17:34:28;97151.69;;;14.81;39.48
60228;BME280;46091;46.512;6.626;2023-04-08T17:36:31;97148.88;;;14.76;39.51
60228;BME280;46091;46.512;6.626;2023-04-08T17:38:36;97158.69;;;14.75;39.68
60228;BME280;46091;46.512;6.626;2023-04-08T17:40:40;97142.31;;;14.72;39.63
60228;BME280;46091;46.512;6.626;2023-04-08T17:42:43;97152.97;;;14.72;39.52
60228;BME280;46091;46.512;6.626;2023-04-08T17:44:46;97147.47;;;14.67;39.77
60228;BME280;46091;46.512;6.626;2023-04-08T17:46:49;97162.00;;;14.64;39.59
60228;BME280;46091;46.512;6.626;2023-04-08T17:48:51;97162.81;;;14.65;39.76
60228;BME280;46091;46.512;6.626;2023-04-08T17:50:59;97168.16;;;14.65;39.34